Aérodrome :
LOGIN :

S'inscrire | Disclaimer

   EN    FR    IT 

 










Légende :    VFR   VFR Marginal   IFR   IFR Intensif   IFR Très Intensif
Visi : 
Plafond : 
>= 8 km
>= 3000ft
5 à 8 km
1000 à 3000 ft
1500m à 5 km
500 à 1000 ft
800 à 1500m
200 à 500 ft
< 800m
< 200 ft
Symboles :   Orages  Brouillard  Fortes neiges  Fortes précipitations  Vent > 20 kt
SIGMETs :   Divers  Orages  Givrage  Turbulence  Onde Orograph.  Cendres Volcan.







- Altitude de l'aérodrome : 359 ft
- Code IATA : BVA
- Voir les cartes d'approche


LFOB - Beauvais

DERNIER METAR :
  • 230830Z AUTO 24009KT 9999 BKN012 16/13 Q1016 BECMG SCT020

METARs EXPIRÉS :
  • 230800Z AUTO 23008KT 9999 BKN011 BKN050 15/13 Q1015 BECMG SCT020
  • 230730Z AUTO 23008KT 200V270 9999 FEW010 BKN050 15/13 Q1015 NOSIG
  • 230700Z AUTO 25003KT 180V270 9999 BKN015 13/12 Q1015 NOSIG
  • 230630Z AUTO 23004KT 9999 BKN014 13/12 Q1015 BECMG SCT020
  • 230600Z AUTO 23006KT 200V270 9999 BKN014 13/12 Q1014 BECMG BKN030

TAF TAF LFOB
Valide du 23 à 06h jusqu'au 24 à 06h UTC


230500Z 2306/2406 23010KT 9999 BKN014
BECMG 2306/2309 SCT020
TEMPO 2316/2403 4000 RA
BECMG 2404/2406 16012KT
ATIS : +33 3 44 11 49 28
Pas de NOTAMs connus pour ce terrain.



MET'MAP, la Météo Aéronautique d'un coup d'oeil ! - Copyright ORBIFLY Décembre 2007 - Disclaimer

ORBIFLY MET'MAP TEAM :

Programmation & Développement : Alexandra Zaïnal
Conception & Développement : Baudouin d'Aumeries
Co-Programmation & Développement : Marc-Olivier Méhu
Soutien technique & logistique : Manuel Goepfert

Contact : metmap@orbifly.com




SOURCES & CREDITS :

   NOAA